Terminal Aerodrome Forecast
Issued by NWS

Home | Current Version | Previous Version | Text Only | Print | Product List | Glossary On
Versions: 1 2 3 4 5 6 7 8 9 10 11 12 13 14 15 16 17 18 19 20 21 22 23 24 25 26
480
FTUS41 KBUF 231726
TAFIAG
TAF
KIAG 231726Z 2318/2418 08006KT P6SM BKN035
      TEMPO 2318/2321 -SHRA
     FM232100 07009KT P6SM VCSH BKN060
     FM240100 06009KT P6SM BKN020
     FM240800 VRB03KT P6SM BKN012
     FM241300 29005KT P6SM BKN025=

USA.gov is the U.S. government's official web portal to all federal, state and local government web resources and services.